(°C)
(°C)
-3°
-3°
-3°
-3°
-4°
-3°
-4°
W
W
W
W
W
W
W
(km/h)
20-45
18-43
17-42
16-40
15-37
14-33
14-31
(mm)
0
0
0
0
0
0
0
(%)
30
22
23
6
7
8
8

Sonnenhöhe

/ -53.2°
sun-icon
UV 0
07:49
16:13
Abnehmender Halbmond (334°)
05:05
15:04

METAR für Hof (EDQM)

Zeit Bedingungen Temperatur/
Taupunkt
Wind Sichtweite Wetter Wolken Druck Änderung Roh
MVFR 3°C / 2°C 240º 15kt >10km - Scattered Clouds 1200ft
Broken Clouds 1600ft
Broken Clouds 1900ft
0 - EDQM 020020Z AUTO 24015KT 9999 // SCT012/// BKN016/// BKN019/// 03/02 Q////
MVFR 4°C / 2°C 240º 14kt >10km - Broken Clouds 1500ft
Broken Clouds 1900ft
Broken Clouds 2200ft
0 - EDQM 012350Z AUTO 24014KT 9999 // BKN015/// BKN019/// BKN022/// 04/02 Q////
MVFR 4°C / 2°C 230º 17kt Gust 28kt >10km - Broken Clouds 1000ft
Broken Clouds 1400ft
0 - EDQM 012220Z AUTO 23017G28KT 9999 // BKN010/// BKN014/// 04/02 Q////
MVFR 4°C / 2°C 230º 18kt Gust 31kt >10km - Scattered Clouds 1100ft
Broken Clouds 1400ft
Broken Clouds 1700ft
0 - EDQM 012150Z AUTO 23018G31KT 9999 // SCT011/// BKN014/// BKN017/// 04/02 Q////
MVFR 4°C / 2°C 230º 18kt Gust 28kt >10km - Scattered Clouds 1800ft
Overcast 2100ft
0 - EDQM 012120Z AUTO 23018G28KT 9999 // SCT018/// OVC021/// 04/02 Q////
MVFR 4°C / 2°C 230º 20kt Gust 34kt >10km - Broken Clouds 2300ft 0 - EDQM 012050Z AUTO 23020G34KT 9999 // BKN023/// 04/02 Q////
VFR 4°C / 2°C 230º 16kt >10km - Few Clouds 1400ft
Scattered Clouds 2300ft
Broken Clouds 13000ft
0 - EDQM 012020Z AUTO 23016KT 9999 // FEW014/// SCT023/// BKN130/// 04/02 Q////
MVFR 4°C / 2°C 250º variable 210º to 270º 16kt >10km - Scattered Clouds 1400ft
Scattered Clouds 1900ft
Broken Clouds 2800ft
0 - EDQM 011950Z AUTO 25016KT 210V270 9999 // SCT014/// SCT019/// BKN028/// 04/02 Q////
IFR 4°C / 3°C 240º 17kt 4300m - Few Clouds 600ft
Scattered Clouds 1000ft
Broken Clouds 1800ft
0 - EDQM 011920Z AUTO 24017KT 4300 // FEW006/// SCT010/// BKN018/// 04/03 Q////
MVFR 5°C / 4°C 230º variable 210º to 270º 18kt 8000m - Few Clouds 800ft
Broken Clouds 1100ft
Broken Clouds 1500ft
992 - EDQM 011850Z 23018KT 210V270 8000 FEW008 BKN011 BKN015 05/04 Q0992
MVFR 5°C / 4°C 220º 19kt 5000m Light Rain 1.00mm precipitation Vertical Visibility of 0ft.
Broken Clouds 1000ft
Broken Clouds 1400ft
991 - EDQM 011820Z 22019KT 5000 -RA SCT007 BKN010 BKN014 05/04 Q0991
MVFR 5°C / 4°C 220º 21kt 7000m Light Rain 1.00mm precipitation Vertical Visibility of 0ft.
Broken Clouds 1100ft
Broken Clouds 1400ft
991 - EDQM 011750Z 22021KT 7000 -RA SCT007 BKN011 BKN014 05/04 Q0991
MVFR 5°C / 4°C 220º 19kt Gust 32kt 8000m Light Rain 1.00mm precipitation Vertical Visibility of 0ft.
Broken Clouds 1100ft
Broken Clouds 1600ft
991 - EDQM 011720Z 22019G32KT 8000 -RA SCT006 BKN011 BKN016 05/04 Q0991
IFR 5°C / 4°C 220º 17kt 4000m Light Rain Mist 1.00mm precipitation Vertical Visibility of 0ft.
Broken Clouds 700ft
Overcast 1100ft
991 - EDQM 011650Z 22017KT 4000 -RA BR SCT005 BKN007 OVC011 05/04 Q0991
IFR 5°C / 4°C 220º 19kt 8000m Light Rain 1.00mm precipitation Vertical Visibility of 0ft.
Broken Clouds 700ft
Overcast 1100ft
991 - EDQM 011620Z 22019KT 8000 -RA SCT005 BKN007 OVC011 05/04 Q0991
IFR 4°C / 4°C 220º 17kt 6000m Light Rain 1.00mm precipitation Vertical Visibility of 0ft. 992 - EDQM 011550Z 22017KT 6000 -RA OVC005 04/04 Q0992
IFR 4°C / 4°C 210º 15kt 4500m Light Rain Mist 1.00mm precipitation Vertical Visibility of 0ft. 992 - EDQM 011520Z 21015KT 4500 -RA BR OVC005 04/04 Q0992
IFR 4°C / 4°C 210º 15kt 3900m Light Rain Mist 1.00mm precipitation Vertical Visibility of 0ft.
Broken Clouds 600ft
Broken Clouds 800ft
992 - EDQM 011450Z 21015KT 3900 -RA BR SCT005 BKN006 BKN008 04/04 Q0992
IFR 4°C / 4°C 210º 20kt 4200m Light Snow Mist 1.00mm precipitation Vertical Visibility of 0ft.
Broken Clouds 1100ft
993 - EDQM 011420Z 21020KT 4200 -SN BR BKN006 BKN011 04/04 Q0993
IFR 4°C / 4°C 210º 20kt 3900m Light Rain Mist 1.00mm precipitation Vertical Visibility of 0ft.
Overcast 900ft
992 - EDQM 011350Z 21020KT 3900 -RA BR BKN005 OVC009 04/04 Q0992
IFR 4°C / 3°C 210º variable 180º to 240º 17kt 7000m Light Rain 1.00mm precipitation Vertical Visibility of 0ft.
Overcast 1300ft
993 - EDQM 011320Z 21017KT 180V240 7000 -RA BKN006 OVC013 04/03 Q0993
IFR 4°C / 3°C 210º 15kt 6000m Light Rain 1.00mm precipitation Vertical Visibility of 0ft.
Broken Clouds 600ft
Broken Clouds 800ft
994 - EDQM 011250Z 21015KT 6000 -RA SCT005 BKN006 BKN008 04/03 Q0994
IFR 4°C / 3°C 210º 16kt 8000m Light Rain 1.00mm precipitation Vertical Visibility of 0ft.
Overcast 800ft
995 - EDQM 011220Z 21016KT 8000 -RA BKN006 OVC008 04/03 Q0995
IFR 3°C / 3°C 210º 16kt 9000m Light Rain 1.00mm precipitation Vertical Visibility of 0ft.
Overcast 700ft
995 - EDQM 011150Z 21016KT 9000 -RA BKN005 OVC007 03/03 Q0995

MVFR

3°C / 2°C

[Mehr]
Wind 240º 15kt
Sichtweite >10km
Wetter -
Wolken Scattered Clouds 1200ft
Broken Clouds 1600ft
Broken Clouds 1900ft
Druck 0
Änderung -
Roh EDQM 020020Z AUTO 24015KT 9999 // SCT012/// BKN016/// BKN019/// 03/02 Q////

MVFR

4°C / 2°C

[Mehr]
Wind 240º 14kt
Sichtweite >10km
Wetter -
Wolken Broken Clouds 1500ft
Broken Clouds 1900ft
Broken Clouds 2200ft
Druck 0
Änderung -
Roh EDQM 012350Z AUTO 24014KT 9999 // BKN015/// BKN019/// BKN022/// 04/02 Q////

MVFR

4°C / 2°C

[Mehr]
Wind 230º 17kt Gust 28kt
Sichtweite >10km
Wetter -
Wolken Broken Clouds 1000ft
Broken Clouds 1400ft
Druck 0
Änderung -
Roh EDQM 012220Z AUTO 23017G28KT 9999 // BKN010/// BKN014/// 04/02 Q////

MVFR

4°C / 2°C

[Mehr]
Wind 230º 18kt Gust 31kt
Sichtweite >10km
Wetter -
Wolken Scattered Clouds 1100ft
Broken Clouds 1400ft
Broken Clouds 1700ft
Druck 0
Änderung -
Roh EDQM 012150Z AUTO 23018G31KT 9999 // SCT011/// BKN014/// BKN017/// 04/02 Q////

MVFR

4°C / 2°C

[Mehr]
Wind 230º 18kt Gust 28kt
Sichtweite >10km
Wetter -
Wolken Scattered Clouds 1800ft
Overcast 2100ft
Druck 0
Änderung -
Roh EDQM 012120Z AUTO 23018G28KT 9999 // SCT018/// OVC021/// 04/02 Q////

MVFR

4°C / 2°C

[Mehr]
Wind 230º 20kt Gust 34kt
Sichtweite >10km
Wetter -
Wolken Broken Clouds 2300ft
Druck 0
Änderung -
Roh EDQM 012050Z AUTO 23020G34KT 9999 // BKN023/// 04/02 Q////

VFR

4°C / 2°C

[Mehr]
Wind 230º 16kt
Sichtweite >10km
Wetter -
Wolken Few Clouds 1400ft
Scattered Clouds 2300ft
Broken Clouds 13000ft
Druck 0
Änderung -
Roh EDQM 012020Z AUTO 23016KT 9999 // FEW014/// SCT023/// BKN130/// 04/02 Q////

MVFR

4°C / 2°C

[Mehr]
Wind 250º variable 210º to 270º 16kt
Sichtweite >10km
Wetter -
Wolken Scattered Clouds 1400ft
Scattered Clouds 1900ft
Broken Clouds 2800ft
Druck 0
Änderung -
Roh EDQM 011950Z AUTO 25016KT 210V270 9999 // SCT014/// SCT019/// BKN028/// 04/02 Q////

IFR

4°C / 3°C

[Mehr]
Wind 240º 17kt
Sichtweite 4300m
Wetter -
Wolken Few Clouds 600ft
Scattered Clouds 1000ft
Broken Clouds 1800ft
Druck 0
Änderung -
Roh EDQM 011920Z AUTO 24017KT 4300 // FEW006/// SCT010/// BKN018/// 04/03 Q////

MVFR

5°C / 4°C

[Mehr]
Wind 230º variable 210º to 270º 18kt
Sichtweite 8000m
Wetter -
Wolken Few Clouds 800ft
Broken Clouds 1100ft
Broken Clouds 1500ft
Druck 992
Änderung -
Roh EDQM 011850Z 23018KT 210V270 8000 FEW008 BKN011 BKN015 05/04 Q0992

MVFR

5°C / 4°C

[Mehr]
Wind 220º 19kt
Sichtweite 5000m
Wetter Light Rain 1.00mm precipitation
Wolken Vertical Visibility of 0ft.
Broken Clouds 1000ft
Broken Clouds 1400ft
Druck 991
Änderung -
Roh EDQM 011820Z 22019KT 5000 -RA SCT007 BKN010 BKN014 05/04 Q0991

MVFR

5°C / 4°C

[Mehr]
Wind 220º 21kt
Sichtweite 7000m
Wetter Light Rain 1.00mm precipitation
Wolken Vertical Visibility of 0ft.
Broken Clouds 1100ft
Broken Clouds 1400ft
Druck 991
Änderung -
Roh EDQM 011750Z 22021KT 7000 -RA SCT007 BKN011 BKN014 05/04 Q0991

MVFR

5°C / 4°C

[Mehr]
Wind 220º 19kt Gust 32kt
Sichtweite 8000m
Wetter Light Rain 1.00mm precipitation
Wolken Vertical Visibility of 0ft.
Broken Clouds 1100ft
Broken Clouds 1600ft
Druck 991
Änderung -
Roh EDQM 011720Z 22019G32KT 8000 -RA SCT006 BKN011 BKN016 05/04 Q0991

IFR

5°C / 4°C

[Mehr]
Wind 220º 17kt
Sichtweite 4000m
Wetter Light Rain Mist 1.00mm precipitation
Wolken Vertical Visibility of 0ft.
Broken Clouds 700ft
Overcast 1100ft
Druck 991
Änderung -
Roh EDQM 011650Z 22017KT 4000 -RA BR SCT005 BKN007 OVC011 05/04 Q0991

IFR

5°C / 4°C

[Mehr]
Wind 220º 19kt
Sichtweite 8000m
Wetter Light Rain 1.00mm precipitation
Wolken Vertical Visibility of 0ft.
Broken Clouds 700ft
Overcast 1100ft
Druck 991
Änderung -
Roh EDQM 011620Z 22019KT 8000 -RA SCT005 BKN007 OVC011 05/04 Q0991

IFR

4°C / 4°C

[Mehr]
Wind 220º 17kt
Sichtweite 6000m
Wetter Light Rain 1.00mm precipitation
Wolken Vertical Visibility of 0ft.
Druck 992
Änderung -
Roh EDQM 011550Z 22017KT 6000 -RA OVC005 04/04 Q0992

IFR

4°C / 4°C

[Mehr]
Wind 210º 15kt
Sichtweite 4500m
Wetter Light Rain Mist 1.00mm precipitation
Wolken Vertical Visibility of 0ft.
Druck 992
Änderung -
Roh EDQM 011520Z 21015KT 4500 -RA BR OVC005 04/04 Q0992

IFR

4°C / 4°C

[Mehr]
Wind 210º 15kt
Sichtweite 3900m
Wetter Light Rain Mist 1.00mm precipitation
Wolken Vertical Visibility of 0ft.
Broken Clouds 600ft
Broken Clouds 800ft
Druck 992
Änderung -
Roh EDQM 011450Z 21015KT 3900 -RA BR SCT005 BKN006 BKN008 04/04 Q0992

IFR

4°C / 4°C

[Mehr]
Wind 210º 20kt
Sichtweite 4200m
Wetter Light Snow Mist 1.00mm precipitation
Wolken Vertical Visibility of 0ft.
Broken Clouds 1100ft
Druck 993
Änderung -
Roh EDQM 011420Z 21020KT 4200 -SN BR BKN006 BKN011 04/04 Q0993

IFR

4°C / 4°C

[Mehr]
Wind 210º 20kt
Sichtweite 3900m
Wetter Light Rain Mist 1.00mm precipitation
Wolken Vertical Visibility of 0ft.
Overcast 900ft
Druck 992
Änderung -
Roh EDQM 011350Z 21020KT 3900 -RA BR BKN005 OVC009 04/04 Q0992

IFR

4°C / 3°C

[Mehr]
Wind 210º variable 180º to 240º 17kt
Sichtweite 7000m
Wetter Light Rain 1.00mm precipitation
Wolken Vertical Visibility of 0ft.
Overcast 1300ft
Druck 993
Änderung -
Roh EDQM 011320Z 21017KT 180V240 7000 -RA BKN006 OVC013 04/03 Q0993

IFR

4°C / 3°C

[Mehr]
Wind 210º 15kt
Sichtweite 6000m
Wetter Light Rain 1.00mm precipitation
Wolken Vertical Visibility of 0ft.
Broken Clouds 600ft
Broken Clouds 800ft
Druck 994
Änderung -
Roh EDQM 011250Z 21015KT 6000 -RA SCT005 BKN006 BKN008 04/03 Q0994

IFR

4°C / 3°C

[Mehr]
Wind 210º 16kt
Sichtweite 8000m
Wetter Light Rain 1.00mm precipitation
Wolken Vertical Visibility of 0ft.
Overcast 800ft
Druck 995
Änderung -
Roh EDQM 011220Z 21016KT 8000 -RA BKN006 OVC008 04/03 Q0995

IFR

3°C / 3°C

[Mehr]
Wind 210º 16kt
Sichtweite 9000m
Wetter Light Rain 1.00mm precipitation
Wolken Vertical Visibility of 0ft.
Overcast 700ft
Druck 995
Änderung -
Roh EDQM 011150Z 21016KT 9000 -RA BKN005 OVC007 03/03 Q0995

TAF für Hof (EDQM)

From till


From till Wind 230º 20kt. Visibility 8000m. Scattered Clouds 500ft. Broken Clouds 1000ft.
With 40% probability, Temporarly from till Wind 230º 20kt. Gust 35kt. Visibility 4000m. Showers Rain . Broken Clouds 700ft.
With 40% probability, Temporarly from till Visibility 3000m. Light Rain Light Drizzle Mist . Broken Clouds 500ft.
Becoming from till Wind 240º 15kt. Gust 25kt. Visibility 8000m. Scattered Clouds 500ft. Broken Clouds 1000ft.

Roh: TAF EDQM 011700Z 0118/0203 23020KT 8000 SCT005 BKN010 PROB40 TEMPO 0118/0120 23020G35KT 4000 SHRA BKN007TCU PROB40 TEMPO 0120/0203 3000 -RADZ BR BKN005 BECMG 0120/0122 24015G25KT

rainNOW: Regenvorhersage für Hof und Umgebung (25km Radius)

0.0 mm
0.0 mm
0.0 mm
0.0 mm
0.0 mm
0.0 mm
0.0 mm
0.0 mm
0.0 mm
0.0 mm
0.0 mm
0.0 mm

Aktuelle Satelliten- und Regenbilder für Hof, Deutschland

Die Standortmarkierung ist platziert auf Hof. [Mehr]

Das Echtzeit-Satellitenbild kombiniert sichtbares Licht während des Tages mit Infrarotstrahlung während der Nacht. Nachts ist das Bild nicht dunkel, da Infrarotstrahlung Temperaturunterschiede erkennen kann. Leider sind niedrige Wolken und Nebel nur schwer von den Bodentemperaturen zu unterscheiden und können daher nachts fast unsichtbar sein. Meteosat-Satellitenbilder für Europa werden alle 5 Minuten in Echtzeit aktualisiert. Die Bilder GOES-16 / GOES-17 (Nord- und Südamerika) und Himawari (Asien) werden alle 10 Minuten aktualisiert.

Niederschläge werden von Radar und Satelliten berechnet. Nachts sind die Niederschlagsberechnungen durch die Satelliten weniger genau als tagsüber. Orangene Kreuze markieren Stellen, an denen Blitze aufgenommen wurden (über Europa).

Copyright 2021 EUMETSAT / meteoblue. Blitzdaten zur Verfügung gestellt von nowcast.

Radar für Hof

Nieselregen
Leicht
Moderat
Stark
Sehr schwer
Hagel

Die Ortsmarkierung zeigt auf Hof. Diese Animation zeigt das Niederschlagsradar der letzten Stunde, sowie eine 2h Vorhersage. Nieselregen und leichter Schneefall können für das Radar unsichtbar sein. Die Niederschlagsintensität ist farbcodiert von Hellblau bis Orange.
Copyright 2021 Deutscher Wetterdienst / meteoblue.